createdAt,value
2023-03-13T00:01:33.118Z,3.73
2023-03-13T00:03:59.956Z,3.87
2023-03-13T00:06:32.397Z,3.10
2023-03-13T00:09:02.613Z,3.13
2023-03-13T00:11:32.380Z,3.55
2023-03-13T00:14:03.131Z,5.23
2023-03-13T00:16:30.750Z,3.93
2023-03-13T00:18:58.491Z,3.77
2023-03-13T00:21:30.372Z,2.67
2023-03-13T00:23:59.517Z,4.10
2023-03-13T00:26:27.577Z,2.53
2023-03-13T00:28:58.938Z,5.60
2023-03-13T00:31:34.232Z,4.47
2023-03-13T00:34:06.712Z,3.05
2023-03-13T00:36:37.588Z,3.47
2023-03-13T00:39:06.213Z,5.13
2023-03-13T00:41:36.637Z,2.47
2023-03-13T00:44:06.031Z,3.73
2023-03-13T00:46:38.473Z,5.47
2023-03-13T00:49:07.968Z,4.93
2023-03-13T00:51:36.999Z,2.80
2023-03-13T00:54:06.203Z,3.23
2023-03-13T00:56:35.470Z,4.50
2023-03-13T00:59:02.362Z,3.93
2023-03-13T01:01:32.545Z,2.10
2023-03-13T01:04:01.821Z,3.67
2023-03-13T01:06:30.459Z,4.27
2023-03-13T01:08:57.928Z,3.78
2023-03-13T01:11:30.153Z,2.40
2023-03-13T01:13:59.138Z,5.50
2023-03-13T01:16:29.788Z,4.00
2023-03-13T01:19:00.282Z,2.30
2023-03-13T01:21:29.851Z,4.57
2023-03-13T01:23:56.885Z,2.47
2023-03-13T01:26:26.413Z,4.93
2023-03-13T01:28:55.347Z,3.80
2023-03-13T01:31:26.113Z,3.80
2023-03-13T01:33:58.574Z,3.23
2023-03-13T01:36:26.891Z,2.07
2023-03-13T01:39:02.311Z,3.13
2023-03-13T01:41:30.435Z,5.20
2023-03-13T01:43:57.938Z,2.93
2023-03-13T01:46:27.891Z,3.13
2023-03-13T01:49:05.072Z,2.20
2023-03-13T01:51:37.581Z,4.30
2023-03-13T01:54:10.557Z,2.50
2023-03-13T01:56:43.033Z,2.77
2023-03-13T01:59:15.577Z,2.70
2023-03-13T02:01:46.589Z,3.03
2023-03-13T02:04:16.230Z,3.42
2023-03-13T02:06:48.271Z,3.53
2023-03-13T02:09:22.670Z,4.00
2023-03-13T02:11:55.819Z,3.10
2023-03-13T02:14:27.436Z,3.53
2023-03-13T02:16:55.938Z,2.77
2023-03-13T02:19:36.586Z,3.20
2023-03-13T02:22:41.985Z,3.67
2023-03-13T02:25:11.817Z,4.38
2023-03-13T02:27:39.469Z,4.07
2023-03-13T02:30:13.176Z,2.63
2023-03-13T02:32:40.857Z,2.63
2023-03-13T02:35:14.362Z,2.40
2023-03-13T02:37:47.936Z,4.27
2023-03-13T02:40:20.638Z,3.08
2023-03-13T02:42:48.399Z,2.37
2023-03-13T02:45:21.070Z,4.27
2023-03-13T02:47:47.712Z,2.80
2023-03-13T02:50:15.410Z,4.30
2023-03-13T02:52:53.857Z,2.77
2023-03-13T02:55:31.141Z,2.63
2023-03-13T02:58:02.620Z,2.03
2023-03-13T03:00:29.361Z,2.83
2023-03-13T03:02:56.370Z,2.80
2023-03-13T03:05:25.413Z,2.03
2023-03-13T03:07:52.140Z,2.30
2023-03-13T03:10:19.369Z,1.53
2023-03-13T03:12:46.120Z,3.23
2023-03-13T03:15:14.995Z,3.80
2023-03-13T03:17:41.719Z,3.50
2023-03-13T03:20:11.904Z,2.77
2023-03-13T03:22:40.786Z,2.83
2023-03-13T03:25:11.117Z,1.23
2023-03-13T03:27:38.307Z,1.47
2023-03-13T03:30:06.025Z,1.73
2023-03-13T03:32:32.921Z,1.63
2023-03-13T03:35:04.131Z,1.93
2023-03-13T03:37:33.360Z,1.97
2023-03-13T03:40:02.507Z,1.10
2023-03-13T03:42:31.444Z,2.30
2023-03-13T03:45:00.322Z,0.90
2023-03-13T03:47:27.572Z,0.90
2023-03-13T03:49:54.235Z,1.80
2023-03-13T03:52:23.157Z,2.03
2023-03-13T03:54:49.899Z,1.73
2023-03-13T03:57:19.040Z,1.67
2023-03-13T03:59:46.002Z,3.23
2023-03-13T04:02:15.004Z,1.70
2023-03-13T04:04:44.196Z,3.10
2023-03-13T04:07:10.936Z,0.60
2023-03-13T04:09:38.099Z,1.10
2023-03-13T04:12:05.019Z,0.77
2023-03-13T04:14:33.954Z,1.90
2023-03-13T04:17:00.777Z,0.80
2023-03-13T04:19:30.043Z,1.13
2023-03-13T04:21:59.373Z,2.23
2023-03-13T04:24:28.217Z,1.23
2023-03-13T04:26:54.906Z,0.60
2023-03-13T04:29:21.639Z,0.97
2023-03-13T04:31:48.336Z,2.20
2023-03-13T04:34:17.372Z,2.10
2023-03-13T04:36:44.621Z,3.87
2023-03-13T04:39:11.427Z,2.67
2023-03-13T04:41:40.783Z,1.10
2023-03-13T04:44:10.073Z,1.33
2023-03-13T04:46:36.828Z,1.37
2023-03-13T04:49:08.667Z,1.00
2023-03-13T04:51:37.915Z,1.17
2023-03-13T04:54:11.887Z,0.67
2023-03-13T04:56:43.909Z,1.17
2023-03-13T04:59:14.880Z,0.60
2023-03-13T05:01:42.509Z,1.90
2023-03-13T05:04:09.781Z,1.00
2023-03-13T05:06:38.783Z,0.50
2023-03-13T05:09:05.874Z,0.90
2023-03-13T05:11:37.256Z,0.67
2023-03-13T05:14:04.514Z,1.83
2023-03-13T05:16:31.286Z,1.87
2023-03-13T05:18:58.028Z,1.00
2023-03-13T05:21:24.808Z,2.20
2023-03-13T05:23:51.916Z,1.58
2023-03-13T05:26:20.726Z,1.30
2023-03-13T05:28:47.380Z,1.53
2023-03-13T05:31:14.145Z,0.40
2023-03-13T05:33:41.493Z,1.40
2023-03-13T05:36:10.826Z,1.27
2023-03-13T05:38:38.085Z,0.90
2023-03-13T05:41:07.374Z,1.00
2023-03-13T05:43:33.995Z,0.93
2023-03-13T05:46:00.878Z,1.43
2023-03-13T05:48:27.612Z,0.73
2023-03-13T05:50:57.101Z,0.93
2023-03-13T05:53:23.846Z,0.93
2023-03-13T05:55:52.951Z,0.77
2023-03-13T05:58:24.348Z,1.97
2023-03-13T06:00:51.020Z,1.20
2023-03-13T06:03:22.173Z,0.67
2023-03-13T06:05:48.862Z,0.30
2023-03-13T06:08:15.998Z,1.37
2023-03-13T06:10:45.138Z,1.03
2023-03-13T06:13:20.174Z,0.80
2023-03-13T06:15:59.629Z,0.93
2023-03-13T06:18:29.028Z,1.53
2023-03-13T06:21:00.310Z,0.87
2023-03-13T06:23:27.801Z,1.17
2023-03-13T06:25:59.111Z,1.23
2023-03-13T06:28:28.767Z,1.20
2023-03-13T06:30:55.432Z,1.60
2023-03-13T06:33:22.234Z,1.20
2023-03-13T06:35:56.358Z,0.90
2023-03-13T06:38:24.866Z,1.83
2023-03-13T06:40:53.925Z,0.93
2023-03-13T06:43:21.404Z,1.20
2023-03-13T06:45:51.224Z,0.80
2023-03-13T06:48:18.237Z,1.00
2023-03-13T06:50:47.412Z,0.93
2023-03-13T06:53:19.463Z,1.03
2023-03-13T06:55:51.382Z,1.80
2023-03-13T06:58:31.562Z,1.03
2023-03-13T07:01:07.683Z,1.13
2023-03-13T07:03:35.261Z,1.00
2023-03-13T07:06:02.242Z,1.70
2023-03-13T07:08:32.750Z,2.40
2023-03-13T07:11:07.346Z,1.80
2023-03-13T07:13:36.792Z,11.70
2023-03-13T07:16:09.363Z,4.60
2023-03-13T07:18:36.611Z,6.63
2023-03-13T07:21:07.417Z,11.73
2023-03-13T07:23:37.517Z,9.20
2023-03-13T07:26:07.754Z,16.97
2023-03-13T07:28:37.576Z,18.60
2023-03-13T07:31:09.192Z,20.47
2023-03-13T07:33:36.029Z,19.53
2023-03-13T07:36:03.426Z,14.30
2023-03-13T07:38:30.237Z,11.40
2023-03-13T07:41:01.239Z,18.13
2023-03-13T07:43:31.510Z,24.70
2023-03-13T07:46:03.896Z,12.80
2023-03-13T07:48:33.245Z,9.63
2023-03-13T07:51:00.553Z,7.60
2023-03-13T07:53:28.344Z,9.27
2023-03-13T07:56:03.952Z,3.17
2023-03-13T07:58:33.920Z,11.95
2023-03-13T08:01:01.036Z,5.83
2023-03-13T08:03:29.017Z,3.73
2023-03-13T08:06:06.984Z,4.07
2023-03-13T08:08:33.692Z,1.60
2023-03-13T08:11:10.146Z,2.33
2023-03-13T08:13:41.271Z,1.20
2023-03-13T08:16:13.527Z,1.15
2023-03-13T08:18:43.159Z,1.70
2023-03-13T08:21:32.176Z,3.10
2023-03-13T08:24:05.917Z,2.13
2023-03-13T08:26:37.260Z,2.33
2023-03-13T08:29:12.820Z,2.63
2023-03-13T08:31:45.602Z,4.50
2023-03-13T08:34:13.251Z,1.60
2023-03-13T08:36:42.095Z,1.30
2023-03-13T08:39:17.049Z,2.30
2023-03-13T08:41:44.405Z,1.57
2023-03-13T08:44:17.744Z,1.13
2023-03-13T08:46:48.067Z,1.07
2023-03-13T08:49:17.734Z,1.80
2023-03-13T08:51:45.087Z,1.03
2023-03-13T08:54:11.868Z,1.10
2023-03-13T08:56:38.913Z,0.50
2023-03-13T08:59:06.462Z,1.27
2023-03-13T09:01:39.420Z,1.67
2023-03-13T09:04:06.679Z,1.97
2023-03-13T09:06:38.576Z,0.98
2023-03-13T09:09:08.633Z,1.07
2023-03-13T09:11:37.280Z,1.33
2023-03-13T09:14:07.227Z,0.60
2023-03-13T09:16:40.245Z,0.63
2023-03-13T09:19:09.557Z,1.00
2023-03-13T09:21:36.776Z,0.80
2023-03-13T09:24:06.040Z,1.13
2023-03-13T09:26:32.755Z,1.90
2023-03-13T09:29:01.802Z,0.97
2023-03-13T09:31:35.117Z,0.70
2023-03-13T09:34:01.966Z,1.37
2023-03-13T09:36:31.154Z,1.53
2023-03-13T09:38:59.647Z,1.47
2023-03-13T09:41:43.954Z,1.58
2023-03-13T09:44:32.731Z,0.80
2023-03-13T09:47:10.942Z,1.00
2023-03-13T09:49:44.091Z,1.40
2023-03-13T09:52:15.076Z,0.53
2023-03-13T09:55:08.553Z,1.20
2023-03-13T09:57:37.888Z,1.53
2023-03-13T10:00:16.443Z,2.43
2023-03-13T10:02:53.186Z,1.13
2023-03-13T10:05:23.482Z,1.27
2023-03-13T10:07:50.924Z,1.87
2023-03-13T10:10:22.022Z,2.00
2023-03-13T10:12:57.583Z,2.97
2023-03-13T10:15:59.298Z,1.10
2023-03-13T10:18:28.866Z,1.70
2023-03-13T10:21:20.568Z,1.90
2023-03-13T10:23:56.212Z,1.27
2023-03-13T10:26:27.850Z,1.43
2023-03-13T10:29:02.066Z,1.05
2023-03-13T10:31:37.400Z,2.00
2023-03-13T10:34:11.674Z,1.53
2023-03-13T10:36:50.082Z,1.83
2023-03-13T10:39:19.891Z,2.13
2023-03-13T10:41:48.022Z,1.23
2023-03-13T10:44:19.091Z,1.07
2023-03-13T10:46:50.454Z,2.88
2023-03-13T10:49:20.327Z,1.87
2023-03-13T10:52:03.724Z,0.83
2023-03-13T10:54:37.470Z,1.80
2023-03-13T10:57:18.989Z,1.80
2023-03-13T10:59:48.521Z,2.00
2023-03-13T11:02:34.037Z,1.20
2023-03-13T11:05:01.925Z,2.20
2023-03-13T11:07:38.030Z,2.33
2023-03-13T11:10:13.655Z,0.87
2023-03-13T11:12:46.314Z,1.33
2023-03-13T11:15:20.342Z,0.80
2023-03-13T11:18:04.689Z,0.90
2023-03-13T11:20:36.455Z,1.20
2023-03-13T11:23:35.614Z,1.67
2023-03-13T11:26:06.876Z,1.70
2023-03-13T11:28:58.284Z,2.67
2023-03-13T11:31:45.234Z,1.47
2023-03-13T11:34:17.774Z,1.80
2023-03-13T11:37:11.098Z,3.43
2023-03-13T11:40:02.502Z,2.57
2023-03-13T11:42:57.935Z,0.67
2023-03-13T11:45:58.850Z,0.50
2023-03-13T11:48:25.987Z,0.53
2023-03-13T11:50:56.924Z,1.10
2023-03-13T11:54:05.322Z,2.43
2023-03-13T11:56:49.328Z,0.90
2023-03-13T11:59:22.081Z,1.37
2023-03-13T12:01:54.787Z,0.97
2023-03-13T12:04:51.823Z,2.25
2023-03-13T12:07:31.465Z,1.90
2023-03-13T12:10:02.291Z,1.00
2023-03-13T12:12:35.680Z,0.97
2023-03-13T12:15:14.448Z,0.80
2023-03-13T12:17:51.024Z,1.07
2023-03-13T12:20:26.017Z,2.03
2023-03-13T12:23:32.244Z,1.57
2023-03-13T12:26:08.795Z,0.90
2023-03-13T12:28:56.488Z,1.40
2023-03-13T12:31:33.683Z,0.73
2023-03-13T12:34:09.219Z,0.67
2023-03-13T12:36:38.049Z,1.00
2023-03-13T12:39:22.843Z,0.90
2023-03-13T12:42:16.898Z,1.03
2023-03-13T12:44:43.802Z,1.20
2023-03-13T12:47:46.962Z,1.60
2023-03-13T12:50:42.191Z,0.80
2023-03-13T12:53:27.523Z,0.50
2023-03-13T12:56:06.045Z,0.80
2023-03-13T12:58:52.944Z,2.77
2023-03-13T13:01:33.618Z,0.60
2023-03-13T13:04:28.617Z,1.60
2023-03-13T13:07:03.118Z,1.43
2023-03-13T13:09:42.016Z,0.50
2023-03-13T13:12:14.503Z,1.53
2023-03-13T13:14:50.313Z,2.10
2023-03-13T13:17:35.154Z,2.17
2023-03-13T13:20:25.999Z,1.17
2023-03-13T13:22:53.727Z,1.27
2023-03-13T13:25:38.017Z,1.48
2023-03-13T13:28:22.711Z,0.50
2023-03-13T13:30:55.836Z,0.90
2023-03-13T13:33:34.964Z,0.80
2023-03-13T13:36:10.618Z,1.85
2023-03-13T13:38:41.856Z,1.40
2023-03-13T13:41:11.598Z,0.97
2023-03-13T13:44:24.317Z,2.10
2023-03-13T13:46:51.293Z,0.70
2023-03-13T13:49:35.516Z,1.63
2023-03-13T13:52:04.334Z,1.30
2023-03-13T13:54:55.988Z,2.63
2023-03-13T13:57:29.946Z,0.97
2023-03-13T14:00:55.593Z,1.37
2023-03-13T14:03:27.208Z,1.97
2023-03-13T14:06:05.852Z,2.80
2023-03-13T14:08:42.236Z,1.83
2023-03-13T14:11:38.661Z,1.20
2023-03-13T14:14:19.669Z,1.43
2023-03-13T14:16:51.480Z,1.63
2023-03-13T14:19:30.420Z,0.90
2023-03-13T14:22:05.980Z,1.90
2023-03-13T14:24:32.685Z,1.30
2023-03-13T14:26:59.996Z,1.40
2023-03-13T14:29:26.889Z,0.70
2023-03-13T14:31:58.931Z,1.60
2023-03-13T14:34:28.981Z,1.47
2023-03-13T14:37:16.864Z,1.20
2023-03-13T14:39:45.366Z,1.97
2023-03-13T14:42:17.262Z,1.13
2023-03-13T14:44:47.250Z,2.57
2023-03-13T14:47:34.365Z,2.47
2023-03-13T14:50:04.521Z,0.87
2023-03-13T14:52:35.289Z,2.27
2023-03-13T14:55:27.430Z,1.37
2023-03-13T14:57:55.920Z,2.30
2023-03-13T15:00:39.283Z,1.47
2023-03-13T15:03:20.212Z,3.53
2023-03-13T15:06:12.236Z,1.50
2023-03-13T15:08:44.631Z,1.17
2023-03-13T15:11:26.543Z,0.60
2023-03-13T15:13:54.103Z,2.20
2023-03-13T15:16:22.661Z,1.40
2023-03-13T15:18:51.365Z,1.87
2023-03-13T15:21:28.812Z,1.37
2023-03-13T15:24:14.848Z,1.83
2023-03-13T15:26:43.831Z,0.80
2023-03-13T15:29:13.406Z,2.17
2023-03-13T15:31:44.913Z,1.07
2023-03-13T15:34:14.988Z,2.22
2023-03-13T15:36:44.118Z,0.63
2023-03-13T15:39:23.064Z,1.30
2023-03-13T15:41:49.837Z,4.70
2023-03-13T15:44:17.012Z,1.67
2023-03-13T15:46:46.177Z,1.50
2023-03-13T15:49:13.438Z,0.80
2023-03-13T15:51:40.187Z,0.77
2023-03-13T15:54:06.937Z,0.53
2023-03-13T15:56:39.423Z,0.70
2023-03-13T15:59:16.347Z,2.83
2023-03-13T16:01:45.452Z,0.83
2023-03-13T16:04:12.252Z,1.67
2023-03-13T16:06:39.035Z,1.30
2023-03-13T16:09:09.341Z,1.00
2023-03-13T16:11:36.040Z,2.73
2023-03-13T16:14:02.779Z,1.07
2023-03-13T16:16:36.510Z,1.33
2023-03-13T16:19:04.264Z,1.73
2023-03-13T16:21:33.150Z,0.90
2023-03-13T16:24:02.433Z,5.83
2023-03-13T16:26:31.074Z,3.43
2023-03-13T16:29:00.600Z,1.57
2023-03-13T16:31:33.489Z,5.05
2023-03-13T16:34:03.557Z,2.87
2023-03-13T16:36:32.256Z,1.97
2023-03-13T16:39:04.136Z,1.27
2023-03-13T16:41:31.133Z,1.20
2023-03-13T16:43:57.972Z,1.63
2023-03-13T16:46:39.207Z,1.57
2023-03-13T16:49:15.792Z,7.93
2023-03-13T16:51:42.932Z,3.90
2023-03-13T16:54:12.067Z,5.07
2023-03-13T16:56:42.165Z,7.03
2023-03-13T16:59:14.519Z,4.30
2023-03-13T17:01:41.291Z,3.30
2023-03-13T17:04:08.199Z,4.10
2023-03-13T17:06:41.381Z,3.03
2023-03-13T17:09:15.189Z,4.40
2023-03-13T17:11:42.801Z,2.83
2023-03-13T17:14:10.236Z,7.47
2023-03-13T17:16:41.083Z,3.83
2023-03-13T17:19:07.914Z,6.55
2023-03-13T17:21:37.421Z,4.90
2023-03-13T17:24:07.722Z,4.27
2023-03-13T17:26:41.777Z,2.30
2023-03-13T17:29:12.697Z,2.80
2023-03-13T17:31:41.904Z,3.03
2023-03-13T17:34:16.870Z,3.00
2023-03-13T17:36:44.561Z,1.90
2023-03-13T17:39:13.838Z,2.70
2023-03-13T17:41:40.520Z,3.30
2023-03-13T17:44:07.709Z,2.63
2023-03-13T17:46:47.422Z,2.17
2023-03-13T17:49:15.584Z,3.00
2023-03-13T17:51:44.455Z,3.80
2023-03-13T17:54:11.541Z,2.27
2023-03-13T17:56:42.836Z,2.27
2023-03-13T17:59:17.460Z,2.90
2023-03-13T18:01:44.683Z,1.47
2023-03-13T18:04:12.991Z,1.67
2023-03-13T18:06:42.398Z,1.50
2023-03-13T18:09:17.648Z,3.00
2023-03-13T18:11:47.926Z,1.83
2023-03-13T18:14:17.788Z,1.07
2023-03-13T18:16:51.005Z,1.17
2023-03-13T18:19:23.478Z,1.33
2023-03-13T18:21:52.575Z,2.07
2023-03-13T18:24:22.654Z,1.77
2023-03-13T18:26:52.146Z,3.13
2023-03-13T18:29:27.783Z,1.52
2023-03-13T18:32:00.257Z,4.07
2023-03-13T18:34:27.647Z,1.20
2023-03-13T18:36:55.237Z,7.53
2023-03-13T18:39:25.085Z,1.07
2023-03-13T18:41:52.678Z,4.27
2023-03-13T18:44:20.904Z,1.37
2023-03-13T18:46:47.702Z,1.30
2023-03-13T18:49:21.261Z,3.20
2023-03-13T18:51:52.720Z,1.20
2023-03-13T18:54:20.119Z,0.90
2023-03-13T18:56:47.667Z,1.63
2023-03-13T18:59:20.798Z,1.23
2023-03-13T19:01:52.427Z,1.47
2023-03-13T19:04:19.588Z,1.70
2023-03-13T19:06:49.072Z,3.53
2023-03-13T19:09:42.705Z,2.17
2023-03-13T19:12:08.443Z,2.07
2023-03-13T19:14:35.584Z,1.50
2023-03-13T19:17:15.265Z,1.70
2023-03-13T19:19:41.953Z,1.60
2023-03-13T19:22:13.644Z,2.07
2023-03-13T19:24:40.571Z,2.20
2023-03-13T19:27:07.308Z,3.43
2023-03-13T19:29:36.559Z,2.65
2023-03-13T19:32:07.536Z,2.07
2023-03-13T19:34:34.315Z,2.00
2023-03-13T19:37:01.067Z,2.43
2023-03-13T19:39:27.841Z,2.70
2023-03-13T19:41:54.696Z,2.80
2023-03-13T19:44:21.671Z,2.33
2023-03-13T19:46:51.009Z,2.40
2023-03-13T19:49:22.040Z,1.87
2023-03-13T19:51:49.463Z,2.03
2023-03-13T19:54:21.349Z,1.23
2023-03-13T19:56:48.992Z,1.47
2023-03-13T19:59:17.194Z,2.85
2023-03-13T20:01:44.570Z,1.43
2023-03-13T20:04:12.248Z,1.67
2023-03-13T20:06:40.350Z,0.70
2023-03-13T20:09:09.720Z,0.50
2023-03-13T20:11:37.055Z,0.70
2023-03-13T20:14:04.907Z,0.40
2023-03-13T20:16:33.648Z,0.40
2023-03-13T20:19:01.905Z,0.57
2023-03-13T20:21:30.328Z,0.40
2023-03-13T20:24:00.156Z,1.43
2023-03-13T20:26:28.311Z,1.03
2023-03-13T20:28:58.503Z,0.63
2023-03-13T20:31:32.122Z,1.73
2023-03-13T20:34:02.287Z,0.50
2023-03-13T20:36:29.111Z,0.40
2023-03-13T20:38:55.952Z,0.40
2023-03-13T20:41:25.724Z,0.40
2023-03-13T20:43:55.186Z,1.90
2023-03-13T20:46:23.293Z,0.90
2023-03-13T20:48:52.635Z,0.80
2023-03-13T20:51:21.846Z,0.73
2023-03-13T20:53:50.766Z,1.50
2023-03-13T20:56:17.437Z,11.23
2023-03-13T20:58:44.110Z,1.20
2023-03-13T21:01:13.314Z,0.97
2023-03-13T21:03:40.346Z,1.55
2023-03-13T21:06:14.179Z,1.00
2023-03-13T21:08:41.920Z,2.27
2023-03-13T21:11:13.086Z,1.03
2023-03-13T21:13:39.842Z,1.40
2023-03-13T21:16:09.527Z,1.10
2023-03-13T21:18:36.838Z,0.80
2023-03-13T21:21:12.549Z,1.17
2023-03-13T21:23:42.292Z,2.93
2023-03-13T21:26:09.400Z,1.53
2023-03-13T21:28:36.572Z,1.07
2023-03-13T21:31:14.931Z,1.37
2023-03-13T21:33:45.645Z,1.30
2023-03-13T21:36:16.516Z,0.73
2023-03-13T21:38:43.866Z,0.90
2023-03-13T21:41:13.046Z,0.87
2023-03-13T21:43:43.571Z,2.87
2023-03-13T21:46:15.865Z,1.43
2023-03-13T21:51:12.906Z,0.65
2023-03-13T21:53:42.048Z,0.70
2023-03-13T21:56:15.273Z,0.87
2023-03-13T21:58:42.745Z,0.60
2023-03-13T22:01:12.249Z,0.97
2023-03-13T22:03:43.968Z,0.43
2023-03-13T22:06:19.280Z,0.60
2023-03-13T22:08:47.739Z,1.50
2023-03-13T22:11:14.626Z,1.13
2023-03-13T22:13:41.615Z,2.90
2023-03-13T22:16:11.537Z,2.40
2023-03-13T22:18:43.122Z,0.77
2023-03-13T22:21:10.165Z,0.37
2023-03-13T22:23:38.643Z,1.63
2023-03-13T22:26:10.465Z,0.50
2023-03-13T22:28:37.775Z,1.73
2023-03-13T22:31:08.440Z,0.93
2023-03-13T22:33:35.677Z,1.70
2023-03-13T22:36:02.545Z,1.80
2023-03-13T22:38:38.967Z,0.85
2023-03-13T22:41:10.346Z,2.63
2023-03-13T22:43:37.143Z,1.30
2023-03-13T22:46:07.133Z,2.90
2023-03-13T22:48:33.864Z,3.73
2023-03-13T22:51:07.300Z,1.00
2023-03-13T22:53:37.086Z,2.33
2023-03-13T22:56:04.284Z,1.73
2023-03-13T22:58:35.892Z,2.47
2023-03-13T23:01:06.510Z,0.90
2023-03-13T23:03:33.423Z,1.43
2023-03-13T23:06:04.101Z,1.00
2023-03-13T23:08:30.808Z,1.10
2023-03-13T23:11:02.758Z,1.45
2023-03-13T23:13:30.345Z,1.60
2023-03-13T23:15:57.600Z,2.60
2023-03-13T23:18:28.445Z,1.53
2023-03-13T23:20:57.792Z,1.00
2023-03-13T23:23:26.860Z,1.37
2023-03-13T23:25:53.522Z,0.83
2023-03-13T23:28:25.244Z,0.85
2023-03-13T23:30:52.140Z,1.13
2023-03-13T23:33:19.180Z,2.90
2023-03-13T23:35:45.929Z,1.33
2023-03-13T23:38:13.206Z,0.80
2023-03-13T23:40:40.327Z,1.80
2023-03-13T23:43:09.324Z,0.50
2023-03-13T23:45:36.604Z,0.90
2023-03-13T23:48:04.982Z,0.60
2023-03-13T23:50:32.117Z,0.60
2023-03-13T23:53:00.944Z,0.93
2023-03-13T23:55:27.645Z,0.70
2023-03-13T23:57:54.330Z,1.40
